Dawson, Texas
Current Conditions -  °F | °C
As of 6:55 PM on Friday 24 Oct 2014 (Local Time) from KLXY Reporting Station
Clear Clear  
Wind Chill: 74°   Ceiling: Unl
Heat Index: 74°   Visibility: 10mi
Dew Point: 61°   Wind: 3mph
Humidity: 63%   Direction: 130°SE
Pressure: 30.09"   Gusts: NA
Location:  31.89°N, 96.71°W
Report Text: KLXY 242355Z AUTO 13003KT 10SM CLR 24/16 A3009 RMK AO2 T02350161 10266 20235
Loading
Personal Weather Stations






























Interactive Weather Map
Tropical Storm Tracking
New forecast layout! Learn more

10-Day Weather Forecast

Advertisements
Track Severe Weather on mobile